Time,TemperatureF,DewpointF,PressureIn,WindDirection,WindDirectionDegrees,WindSpeedMPH,WindSpeedGustMPH,Humidity,HourlyPrecipIn,Conditions,Clouds,dailyrainin,SoftwareType,DateUTC
2013-06-13 00:05:00,52.9,51.8,29.83,North,5,0.0,8.0,96,0.00,,,0.00,Wunderground v.1.15,2013-06-13 04:05:00,
2013-06-13 00:10:00,52.9,51.8,29.83,North,5,0.0,8.0,96,0.00,,,0.00,Wunderground v.1.15,2013-06-13 04:10:00,
2013-06-13 00:15:00,52.7,51.6,29.82,North,5,0.0,8.0,96,0.00,,,0.00,Wunderground v.1.15,2013-06-13 04:15:00,
2013-06-13 00:20:00,52.6,51.5,29.83,North,5,0.0,8.0,96,0.00,,,0.00,Wunderground v.1.15,2013-06-13 04:20:00,
2013-06-13 00:25:00,52.5,51.7,29.83,North,5,0.0,8.0,97,0.00,,,0.00,Wunderground v.1.15,2013-06-13 04:25:00,
2013-06-13 00:30:00,52.6,51.8,29.83,North,5,0.0,8.0,97,0.00,,,0.00,Wunderground v.1.15,2013-06-13 04:30:00,
2013-06-13 00:35:00,52.6,51.8,29.83,North,5,0.0,8.0,97,0.00,,,0.00,Wunderground v.1.15,2013-06-13 04:35:00,
2013-06-13 00:40:00,52.6,51.8,29.83,North,5,0.0,8.0,97,0.00,,,0.00,Wunderground v.1.15,2013-06-13 04:40:00,
2013-06-13 00:45:00,52.5,51.7,29.82,North,5,0.0,8.0,97,0.00,,,0.00,Wunderground v.1.15,2013-06-13 04:45:00,
2013-06-13 00:55:00,52.3,51.5,29.83,North,5,0.0,8.0,97,0.00,,,0.00,Wunderground v.1.15,2013-06-13 04:55:00,
2013-06-13 01:00:00,52.3,51.5,29.83,North,5,0.0,8.0,97,0.00,,,0.00,Wunderground v.1.15,2013-06-13 05:00:00,
2013-06-13 01:05:00,52.1,51.3,29.83,North,5,0.0,8.0,97,0.00,,,0.00,Wunderground v.1.15,2013-06-13 05:05:00,
2013-06-13 01:10:00,52.0,51.2,29.83,North,5,0.0,8.0,97,0.00,,,0.00,Wunderground v.1.15,2013-06-13 05:10:00,
2013-06-13 01:15:00,52.0,51.2,29.83,North,5,0.0,8.0,97,0.00,,,0.00,Wunderground v.1.15,2013-06-13 05:15:00,
2013-06-13 01:20:00,52.0,51.2,29.83,North,5,0.0,8.0,97,0.00,,,0.00,Wunderground v.1.15,2013-06-13 05:20:00,
2013-06-13 01:25:00,52.1,51.3,29.83,North,5,0.0,8.0,97,0.00,,,0.00,Wunderground v.1.15,2013-06-13 05:25:00,
2013-06-13 01:30:00,52.0,51.2,29.82,North,5,0.0,8.0,97,0.00,,,0.00,Wunderground v.1.15,2013-06-13 05:30:00,
2013-06-13 01:35:00,51.8,51.0,29.82,North,5,0.0,8.0,97,0.00,,,0.00,Wunderground v.1.15,2013-06-13 05:35:00,
2013-06-13 01:45:00,51.5,50.7,29.82,North,5,0.0,8.0,97,0.00,,,0.00,Wunderground v.1.15,2013-06-13 05:45:00,
2013-06-13 01:50:00,51.4,50.6,29.82,North,5,0.0,8.0,97,0.00,,,0.00,Wunderground v.1.15,2013-06-13 05:50:00,
2013-06-13 01:55:00,51.2,50.4,29.82,North,5,0.0,8.0,97,0.00,,,0.00,Wunderground v.1.15,2013-06-13 05:55:00,
2013-06-13 02:00:00,51.2,50.4,29.81,North,5,0.0,8.0,97,0.00,,,0.00,Wunderground v.1.15,2013-06-13 06:00:00,
2013-06-13 02:05:00,51.2,50.4,29.81,North,5,0.0,8.0,97,0.00,,,0.00,Wunderground v.1.15,2013-06-13 06:05:00,
2013-06-13 02:10:00,51.5,51.0,29.81,North,5,0.0,8.0,98,0.00,,,0.00,Wunderground v.1.15,2013-06-13 06:10:00,
2013-06-13 02:15:00,51.5,51.0,29.81,North,5,0.0,8.0,98,0.00,,,0.00,Wunderground v.1.15,2013-06-13 06:15:00,
2013-06-13 02:25:00,51.5,50.7,29.80,North,5,0.0,8.0,97,0.00,,,0.00,Wunderground v.1.15,2013-06-13 06:25:00,
2013-06-13 02:30:00,51.6,51.1,29.80,North,5,0.0,8.0,98,0.00,,,0.00,Wunderground v.1.15,2013-06-13 06:30:00,
2013-06-13 02:35:00,51.6,51.1,29.80,North,5,0.0,8.0,98,0.00,,,0.00,Wunderground v.1.15,2013-06-13 06:35:00,
2013-06-13 02:40:00,51.6,51.1,29.80,North,5,0.0,8.0,98,0.00,,,0.00,Wunderground v.1.15,2013-06-13 06:40:00,
2013-06-13 02:45:00,51.6,51.1,29.80,North,5,0.0,8.0,98,0.00,,,0.00,Wunderground v.1.15,2013-06-13 06:45:00,
2013-06-13 02:50:00,51.9,51.4,29.80,North,5,0.0,8.0,98,0.00,,,0.00,Wunderground v.1.15,2013-06-13 06:50:00,
2013-06-13 02:55:00,51.9,51.4,29.80,North,5,0.0,8.0,98,0.00,,,0.00,Wunderground v.1.15,2013-06-13 06:55:00,
2013-06-13 03:00:00,51.9,51.4,29.80,North,5,0.0,8.0,98,0.00,,,0.00,Wunderground v.1.15,2013-06-13 07:00:00,
2013-06-13 03:10:00,52.1,51.6,29.80,North,5,0.0,8.0,98,0.00,,,0.00,Wunderground v.1.15,2013-06-13 07:10:00,
2013-06-13 03:15:00,52.1,51.6,29.80,North,5,0.0,8.0,98,0.00,,,0.00,Wunderground v.1.15,2013-06-13 07:15:00,
2013-06-13 03:20:00,52.0,51.5,29.80,North,5,0.0,8.0,98,0.00,,,0.00,Wunderground v.1.15,2013-06-13 07:20:00,
2013-06-13 03:25:00,52.0,51.5,29.80,North,5,0.0,8.0,98,0.00,,,0.00,Wunderground v.1.15,2013-06-13 07:25:00,
2013-06-13 03:30:00,51.8,51.3,29.80,North,5,0.0,8.0,98,0.00,,,0.00,Wunderground v.1.15,2013-06-13 07:30:00,
2013-06-13 03:35:00,51.6,50.8,29.80,North,5,0.0,8.0,97,0.00,,,0.00,Wunderground v.1.15,2013-06-13 07:35:00,
2013-06-13 03:40:00,51.4,50.6,29.80,North,5,0.0,8.0,97,0.00,,,0.00,Wunderground v.1.15,2013-06-13 07:40:00,
2013-06-13 03:50:00,51.3,50.8,29.79,North,5,0.0,8.0,98,0.00,,,0.00,Wunderground v.1.15,2013-06-13 07:50:00,
2013-06-13 03:55:00,51.3,50.8,29.79,North,5,0.0,8.0,98,0.00,,,0.00,Wunderground v.1.15,2013-06-13 07:55:00,
2013-06-13 04:00:00,51.3,50.8,29.79,North,5,0.0,8.0,98,0.00,,,0.00,Wunderground v.1.15,2013-06-13 08:00:00,
2013-06-13 04:05:00,51.4,50.9,29.80,North,5,0.0,8.0,98,0.00,,,0.00,Wunderground v.1.15,2013-06-13 08:05:00,
2013-06-13 04:15:00,51.6,51.3,29.80,North,5,0.0,8.0,99,0.00,,,0.00,Wunderground v.1.15,2013-06-13 08:15:00,
2013-06-13 04:20:00,51.7,51.4,29.80,North,5,0.0,8.0,99,0.00,,,0.00,Wunderground v.1.15,2013-06-13 08:20:00,
2013-06-13 04:25:00,51.8,51.5,29.81,North,5,0.0,8.0,99,0.00,,,0.00,Wunderground v.1.15,2013-06-13 08:25:00,
2013-06-13 04:35:00,52.5,52.2,29.80,North,5,0.0,8.0,99,0.00,,,0.00,Wunderground v.1.15,2013-06-13 08:35:00,
2013-06-13 04:40:00,52.9,52.9,29.80,North,5,0.0,8.0,100,0.00,,,0.00,Wunderground v.1.15,2013-06-13 08:40:00,
2013-06-13 04:50:00,53.2,52.9,29.80,North,5,0.0,8.0,99,0.00,,,0.00,Wunderground v.1.15,2013-06-13 08:50:00,
2013-06-13 04:55:00,53.4,53.4,29.79,North,5,0.0,8.0,100,0.00,,,0.00,Wunderground v.1.15,2013-06-13 08:55:00,
2013-06-13 05:00:00,53.5,53.2,29.79,North,5,0.0,8.0,99,0.00,,,0.00,Wunderground v.1.15,2013-06-13 09:00:00,
2013-06-13 05:05:00,53.6,53.3,29.78,North,5,0.0,8.0,99,0.00,,,0.00,Wunderground v.1.15,2013-06-13 09:05:00,
2013-06-13 05:10:00,53.7,53.1,29.79,North,5,0.0,8.0,98,0.00,,,0.00,Wunderground v.1.15,2013-06-13 09:10:00,
2013-06-13 05:20:00,54.3,53.5,29.79,North,5,0.0,8.0,97,0.00,,,0.00,Wunderground v.1.15,2013-06-13 09:20:00,
2013-06-13 05:25:00,54.6,52.6,29.79,North,5,0.0,8.0,93,0.00,,,0.00,Wunderground v.1.15,2013-06-13 09:25:00,
2013-06-13 05:30:00,55.0,53.3,29.80,North,5,0.0,8.0,94,0.00,,,0.00,Wunderground v.1.15,2013-06-13 09:30:00,
2013-06-13 05:35:00,55.4,54.0,29.80,North,5,0.0,8.0,95,0.00,,,0.00,Wunderground v.1.15,2013-06-13 09:35:00,
2013-06-13 05:40:00,55.5,53.8,29.80,North,5,0.0,8.0,94,0.00,,,0.00,Wunderground v.1.15,2013-06-13 09:40:00,
2013-06-13 05:45:00,55.6,54.2,29.80,North,5,0.0,8.0,95,0.00,,,0.00,Wunderground v.1.15,2013-06-13 09:45:00,
2013-06-13 05:50:00,55.6,54.2,29.80,North,5,0.0,8.0,95,0.00,,,0.00,Wunderground v.1.15,2013-06-13 09:50:00,
2013-06-13 05:55:00,55.5,53.2,29.80,North,5,0.0,8.0,92,0.00,,,0.00,Wunderground v.1.15,2013-06-13 09:55:00,
2013-06-13 06:00:00,55.4,52.5,29.80,North,5,0.0,8.0,90,0.00,,,0.00,Wunderground v.1.15,2013-06-13 10:00:00,
2013-06-13 06:10:00,55.6,53.3,29.80,North,5,0.0,8.0,92,0.00,,,0.00,Wunderground v.1.15,2013-06-13 10:10:00,
2013-06-13 06:15:00,55.6,52.7,29.80,North,5,0.0,8.0,90,0.00,,,0.00,Wunderground v.1.15,2013-06-13 10:15:00,
2013-06-13 06:20:00,55.7,53.1,29.81,North,5,0.0,8.0,91,0.00,,,0.00,Wunderground v.1.15,2013-06-13 10:20:00,
2013-06-13 06:30:00,55.8,52.9,29.80,North,5,0.0,8.0,90,0.00,,,0.00,Wunderground v.1.15,2013-06-13 10:30:00,
2013-06-13 06:35:00,55.8,52.9,29.80,North,10,0.0,8.0,90,0.00,,,0.00,Wunderground v.1.15,2013-06-13 10:35:00,
2013-06-13 06:40:00,55.8,52.9,29.80,North,10,0.0,8.0,90,0.00,,,0.00,Wunderground v.1.15,2013-06-13 10:40:00,
2013-06-13 06:50:00,56.0,53.7,29.80,North,10,0.0,8.0,92,0.00,,,0.00,Wunderground v.1.15,2013-06-13 10:50:00,
2013-06-13 06:55:00,56.0,54.0,29.80,North,10,0.0,8.0,93,0.00,,,0.00,Wunderground v.1.15,2013-06-13 10:55:00,
2013-06-13 07:00:00,55.9,53.3,29.80,North,10,0.0,8.0,91,0.00,,,0.00,Wunderground v.1.15,2013-06-13 11:00:00,
2013-06-13 07:05:00,55.8,53.8,29.79,North,10,0.0,8.0,93,0.00,,,0.00,Wunderground v.1.15,2013-06-13 11:05:00,
2013-06-13 07:10:00,55.8,53.5,29.79,North,10,0.0,8.0,92,0.00,,,0.00,Wunderground v.1.15,2013-06-13 11:10:00,
2013-06-13 07:15:00,55.6,53.6,29.79,North,10,0.0,8.0,93,0.00,,,0.00,Wunderground v.1.15,2013-06-13 11:15:00,
2013-06-13 07:20:00,55.6,53.6,29.79,North,10,0.0,8.0,93,0.00,,,0.00,Wunderground v.1.15,2013-06-13 11:20:00,
2013-06-13 07:25:00,55.5,52.9,29.79,North,9,0.0,8.0,91,0.00,,,0.00,Wunderground v.1.15,2013-06-13 11:25:00,
2013-06-13 07:30:00,55.6,53.6,29.78,North,9,0.0,8.0,93,0.00,,,0.01,Wunderground v.1.15,2013-06-13 11:30:00,
2013-06-13 07:35:00,55.6,53.9,29.78,North,9,0.0,8.0,94,0.00,,,0.01,Wunderground v.1.15,2013-06-13 11:35:00,
2013-06-13 07:45:00,55.8,54.4,29.77,North,9,0.0,8.0,95,0.05,,,0.02,Wunderground v.1.15,2013-06-13 11:45:00,
2013-06-13 07:50:00,55.7,54.0,29.77,North,9,0.0,8.0,94,0.05,,,0.02,Wunderground v.1.15,2013-06-13 11:50:00,
2013-06-13 07:55:00,55.7,54.3,29.77,North,9,0.0,8.0,95,0.04,,,0.02,Wunderground v.1.15,2013-06-13 11:55:00,
2013-06-13 08:00:00,55.7,54.0,29.77,North,360,0.0,8.0,94,0.00,,,0.03,Wunderground v.1.15,2013-06-13 12:00:00,
2013-06-13 08:05:00,55.8,54.7,29.77,North,360,0.0,8.0,96,0.00,,,0.03,Wunderground v.1.15,2013-06-13 12:05:00,
2013-06-13 08:10:00,55.7,54.3,29.77,North,360,0.0,8.0,95,0.00,,,0.03,Wunderground v.1.15,2013-06-13 12:10:00,
2013-06-13 08:15:00,55.8,54.4,29.77,North,360,0.0,8.0,95,0.00,,,0.03,Wunderground v.1.15,2013-06-13 12:15:00,
2013-06-13 08:25:00,55.9,54.8,29.77,North,360,0.0,8.0,96,0.00,,,0.04,Wunderground v.1.15,2013-06-13 12:25:00,
2013-06-13 08:30:00,55.9,54.8,29.76,North,360,0.0,8.0,96,0.00,,,0.04,Wunderground v.1.15,2013-06-13 12:30:00,
2013-06-13 08:35:00,55.8,54.7,29.77,North,360,0.0,8.0,96,0.09,,,0.05,Wunderground v.1.15,2013-06-13 12:35:00,
2013-06-13 08:40:00,55.7,54.6,29.76,North,5,0.0,8.0,96,0.10,,,0.06,Wunderground v.1.15,2013-06-13 12:40:00,
2013-06-13 08:45:00,55.6,54.5,29.76,ENE,66,0.0,8.0,96,0.12,,,0.07,Wunderground v.1.15,2013-06-13 12:45:00,
2013-06-13 08:50:00,55.7,54.9,29.75,ENE,66,0.0,8.0,97,0.23,,,0.09,Wunderground v.1.15,2013-06-13 12:50:00,
2013-06-13 08:55:00,55.8,55.0,29.76,ENE,66,0.0,8.0,97,0.10,,,0.10,Wunderground v.1.15,2013-06-13 12:55:00,
2013-06-13 09:05:00,55.6,54.8,29.77,West,273,1.0,8.0,97,0.05,,,0.10,Wunderground v.1.15,2013-06-13 13:05:00,
2013-06-13 09:10:00,55.6,54.8,29.77,West,266,1.0,8.0,97,0.04,,,0.10,Wunderground v.1.15,2013-06-13 13:10:00,
2013-06-13 09:15:00,55.5,54.7,29.77,SSW,194,0.0,8.0,97,0.00,,,0.11,Wunderground v.1.15,2013-06-13 13:15:00,
2013-06-13 09:25:00,55.5,54.7,29.77,SSW,194,0.0,8.0,97,0.07,,,0.12,Wunderground v.1.15,2013-06-13 13:25:00,
2013-06-13 09:30:00,55.6,55.0,29.77,SSW,194,0.0,8.0,98,0.07,,,0.12,Wunderground v.1.15,2013-06-13 13:30:00,
2013-06-13 09:35:00,55.5,54.9,29.76,SSW,202,0.0,8.0,98,0.08,,,0.13,Wunderground v.1.15,2013-06-13 13:35:00,
2013-06-13 09:40:00,55.4,54.6,29.75,SSE,154,1.0,8.0,97,0.13,,,0.14,Wunderground v.1.15,2013-06-13 13:40:00,
2013-06-13 09:45:00,55.3,54.7,29.76,South,189,1.0,8.0,98,0.08,,,0.15,Wunderground v.1.15,2013-06-13 13:45:00,
2013-06-13 09:55:00,55.0,54.2,29.76,WSW,243,1.0,8.0,97,0.07,,,0.16,Wunderground v.1.15,2013-06-13 13:55:00,
2013-06-13 10:05:00,55.0,54.4,29.75,SSW,200,0.0,8.0,98,0.14,,,0.18,Wunderground v.1.15,2013-06-13 14:05:00,
2013-06-13 10:10:00,55.0,54.4,29.75,South,179,1.0,8.0,98,0.11,,,0.18,Wunderground v.1.15,2013-06-13 14:10:00,
2013-06-13 10:15:00,54.9,54.3,29.75,South,172,1.0,8.0,98,0.06,,,0.18,Wunderground v.1.15,2013-06-13 14:15:00,
2013-06-13 10:20:00,54.8,54.2,29.75,SSW,193,2.0,8.0,98,0.05,,,0.19,Wunderground v.1.15,2013-06-13 14:20:00,
2013-06-13 10:25:00,54.7,54.1,29.75,South,181,2.0,8.0,98,0.05,,,0.19,Wunderground v.1.15,2013-06-13 14:25:00,
2013-06-13 10:30:00,54.6,54.0,29.74,SSW,200,3.0,8.0,98,0.04,,,0.19,Wunderground v.1.15,2013-06-13 14:30:00,
2013-06-13 10:35:00,54.6,54.0,29.74,SSW,206,3.0,8.0,98,0.00,,,0.20,Wunderground v.1.15,2013-06-13 14:35:00,
2013-06-13 10:40:00,54.5,53.7,29.74,South,188,3.0,3.0,97,0.09,,,0.21,Wunderground v.1.15,2013-06-13 14:40:00,
2013-06-13 10:50:00,54.5,53.9,29.74,South,189,2.0,8.0,98,0.42,,,0.24,Wunderground v.1.15,2013-06-13 14:50:00,
2013-06-13 10:55:00,54.5,53.9,29.77,WSW,238,2.0,8.0,98,0.27,,,0.26,Wunderground v.1.15,2013-06-13 14:55:00,
2013-06-13 11:05:00,54.4,53.8,29.74,South,177,3.0,8.0,98,0.46,,,0.36,Wunderground v.1.15,2013-06-13 15:05:00,
2013-06-13 11:10:00,54.3,53.7,29.73,SE,134,3.0,8.0,98,0.19,,,0.39,Wunderground v.1.15,2013-06-13 15:10:00,
2013-06-13 11:15:00,54.3,53.7,29.73,SSE,161,3.0,8.0,98,0.28,,,0.41,Wunderground v.1.15,2013-06-13 15:15:00,
2013-06-13 11:20:00,54.2,53.6,29.72,South,184,3.0,8.0,98,0.13,,,0.43,Wunderground v.1.15,2013-06-13 15:20:00,
2013-06-13 11:25:00,54.3,54.0,29.72,SE,140,3.0,8.0,99,0.20,,,0.44,Wunderground v.1.15,2013-06-13 15:25:00,
2013-06-13 11:35:00,54.5,54.2,29.72,South,185,2.0,8.0,99,0.15,,,0.46,Wunderground v.1.15,2013-06-13 15:35:00,
2013-06-13 11:40:00,54.6,54.3,29.71,South,173,2.0,8.0,99,0.09,,,0.47,Wunderground v.1.15,2013-06-13 15:40:00,
2013-06-13 11:45:00,54.6,54.3,29.70,SW,215,3.0,8.0,99,0.14,,,0.48,Wunderground v.1.15,2013-06-13 15:45:00,
2013-06-13 11:50:00,54.8,54.5,29.69,SW,217,3.0,8.0,99,0.09,,,0.49,Wunderground v.1.15,2013-06-13 15:50:00,
2013-06-13 11:55:00,54.8,54.5,29.69,South,173,3.0,8.0,99,0.09,,,0.49,Wunderground v.1.15,2013-06-13 15:55:00,
2013-06-13 12:00:00,54.8,54.5,29.69,SSW,194,3.0,8.0,99,0.09,,,0.50,Wunderground v.1.15,2013-06-13 16:00:00,
2013-06-13 12:05:00,54.6,54.3,29.68,SSE,161,3.0,8.0,99,0.18,,,0.52,Wunderground v.1.15,2013-06-13 16:05:00,
2013-06-13 12:10:00,54.5,54.2,29.68,South,189,3.0,8.0,99,0.12,,,0.52,Wunderground v.1.15,2013-06-13 16:10:00,
2013-06-13 12:20:00,54.4,54.1,29.68,SW,217,2.0,2.0,99,0.08,,,0.54,Wunderground v.1.15,2013-06-13 16:20:00,
2013-06-13 12:25:00,54.3,54.0,29.69,SSW,202,2.0,8.0,99,0.44,,,0.56,Wunderground v.1.15,2013-06-13 16:25:00,
2013-06-13 12:30:00,54.3,54.0,29.68,SSE,157,3.0,3.0,99,0.43,,,0.59,Wunderground v.1.15,2013-06-13 16:30:00,
2013-06-13 12:35:00,54.2,53.9,29.69,South,173,2.0,8.0,99,0.18,,,0.61,Wunderground v.1.15,2013-06-13 16:35:00,
2013-06-13 12:40:00,54.2,53.9,29.69,SSE,168,2.0,8.0,99,0.09,,,0.61,Wunderground v.1.15,2013-06-13 16:40:00,
2013-06-13 12:45:00,54.2,53.9,29.69,SSW,202,3.0,8.0,99,0.09,,,0.62,Wunderground v.1.15,2013-06-13 16:45:00,
2013-06-13 12:50:00,54.2,53.9,29.69,SSW,201,3.0,3.0,99,0.08,,,0.63,Wunderground v.1.15,2013-06-13 16:50:00,
2013-06-13 12:55:00,54.2,53.9,29.69,SSW,199,3.0,8.0,99,0.08,,,0.63,Wunderground v.1.15,2013-06-13 16:55:00,
2013-06-13 13:00:00,54.1,53.8,29.68,South,184,2.0,8.0,99,0.05,,,0.63,Wunderground v.1.15,2013-06-13 17:00:00,
2013-06-13 13:10:00,54.2,53.9,29.68,South,177,3.0,3.0,99,0.00,,,0.63,Wunderground v.1.15,2013-06-13 17:10:00,
2013-06-13 13:15:00,54.2,53.9,29.67,SSE,161,2.0,8.0,99,0.00,,,0.64,Wunderground v.1.15,2013-06-13 17:15:00,
2013-06-13 13:20:00,54.2,53.9,29.67,South,173,2.0,8.0,99,0.00,,,0.64,Wunderground v.1.15,2013-06-13 17:20:00,
2013-06-13 13:25:00,54.2,53.9,29.66,SE,134,3.0,8.0,99,0.00,,,0.64,Wunderground v.1.15,2013-06-13 17:25:00,
2013-06-13 13:30:00,54.3,54.0,29.65,SSE,163,3.0,8.0,99,0.00,,,0.64,Wunderground v.1.15,2013-06-13 17:30:00,
2013-06-13 13:35:00,54.4,54.1,29.65,SSW,205,4.0,8.0,99,0.00,,,0.64,Wunderground v.1.15,2013-06-13 17:35:00,
2013-06-13 13:40:00,54.4,54.1,29.65,SE,130,4.0,8.0,99,0.00,,,0.64,Wunderground v.1.15,2013-06-13 17:40:00,
2013-06-13 13:50:00,54.5,54.2,29.65,NE,36,2.0,2.0,99,0.00,,,0.64,Wunderground v.1.15,2013-06-13 17:50:00,
2013-06-13 13:55:00,54.5,54.2,29.64,SSE,165,2.0,3.0,99,0.00,,,0.64,Wunderground v.1.15,2013-06-13 17:55:00,
2013-06-13 14:00:00,54.5,54.2,29.64,South,188,4.0,8.0,99,0.00,,,0.64,Wunderground v.1.15,2013-06-13 18:00:00,
2013-06-13 14:05:00,54.5,54.2,29.64,SSE,165,4.0,8.0,99,0.00,,,0.64,Wunderground v.1.15,2013-06-13 18:05:00,
2013-06-13 14:10:00,54.5,54.2,29.65,SSW,202,3.0,9.0,99,0.00,,,0.64,Wunderground v.1.15,2013-06-13 18:10:00,
2013-06-13 14:15:00,54.5,54.2,29.64,South,188,4.0,9.0,99,0.00,,,0.64,Wunderground v.1.15,2013-06-13 18:15:00,
2013-06-13 14:20:00,54.5,54.2,29.65,South,188,4.0,8.0,99,0.00,,,0.64,Wunderground v.1.15,2013-06-13 18:20:00,
2013-06-13 14:25:00,54.6,54.3,29.65,SSW,207,4.0,8.0,99,0.00,,,0.64,Wunderground v.1.15,2013-06-13 18:25:00,
2013-06-13 14:30:00,54.5,54.2,29.65,South,173,4.0,4.0,99,0.00,,,0.64,Wunderground v.1.15,2013-06-13 18:30:00,
2013-06-13 14:35:00,54.5,54.2,29.65,SW,230,3.0,8.0,99,0.00,,,0.64,Wunderground v.1.15,2013-06-13 18:35:00,
2013-06-13 14:45:00,54.5,53.9,29.65,South,173,3.0,8.0,98,0.00,,,0.64,Wunderground v.1.15,2013-06-13 18:45:00,
2013-06-13 14:50:00,54.4,53.8,29.65,SE,144,2.0,8.0,98,0.00,,,0.64,Wunderground v.1.15,2013-06-13 18:50:00,
2013-06-13 14:55:00,54.5,53.9,29.65,SSE,150,2.0,8.0,98,0.00,,,0.64,Wunderground v.1.15,2013-06-13 18:55:00,
2013-06-13 15:00:00,54.5,53.9,29.65,South,187,3.0,3.0,98,0.00,,,0.64,Wunderground v.1.15,2013-06-13 19:00:00,
2013-06-13 15:05:00,54.5,53.9,29.65,SSW,192,2.0,8.0,98,0.00,,,0.64,Wunderground v.1.15,2013-06-13 19:05:00,
2013-06-13 15:10:00,54.6,54.0,29.65,ESE,114,3.0,8.0,98,0.00,,,0.64,Wunderground v.1.15,2013-06-13 19:10:00,
2013-06-13 15:15:00,54.6,54.0,29.65,SE,144,3.0,8.0,98,0.00,,,0.64,Wunderground v.1.15,2013-06-13 19:15:00,
2013-06-13 15:25:00,54.6,53.8,29.64,SE,134,3.0,8.0,97,0.00,,,0.64,Wunderground v.1.15,2013-06-13 19:25:00,
2013-06-13 15:30:00,54.7,53.9,29.64,ENE,76,4.0,4.0,97,0.00,,,0.64,Wunderground v.1.15,2013-06-13 19:30:00,
2013-06-13 15:35:00,54.7,53.9,29.64,South,180,4.0,5.0,97,0.00,,,0.64,Wunderground v.1.15,2013-06-13 19:35:00,
2013-06-13 15:40:00,54.7,53.9,29.64,SSE,153,4.0,8.0,97,0.00,,,0.64,Wunderground v.1.15,2013-06-13 19:40:00,
2013-06-13 15:45:00,54.8,54.0,29.63,SE,146,3.0,8.0,97,0.00,,,0.64,Wunderground v.1.15,2013-06-13 19:45:00,
2013-06-13 15:50:00,54.7,53.6,29.63,SSE,166,4.0,8.0,96,0.00,,,0.64,Wunderground v.1.15,2013-06-13 19:50:00,
2013-06-13 15:55:00,54.7,53.9,29.63,South,191,4.0,8.0,97,0.00,,,0.64,Wunderground v.1.15,2013-06-13 19:55:00,
2013-06-13 16:00:00,54.7,53.9,29.63,SSW,200,3.0,3.0,97,0.00,,,0.64,Wunderground v.1.15,2013-06-13 20:00:00,
2013-06-13 16:10:00,54.6,53.8,29.62,South,171,4.0,4.0,97,0.00,,,0.65,Wunderground v.1.15,2013-06-13 20:10:00,
2013-06-13 16:15:00,54.6,53.8,29.62,SW,220,4.0,8.0,97,0.00,,,0.65,Wunderground v.1.15,2013-06-13 20:15:00,
2013-06-13 16:20:00,54.6,54.0,29.62,SE,132,3.0,3.0,98,0.00,,,0.65,Wunderground v.1.15,2013-06-13 20:20:00,
2013-06-13 16:25:00,54.5,53.9,29.61,SE,139,2.0,8.0,98,0.00,,,0.65,Wunderground v.1.15,2013-06-13 20:25:00,
2013-06-13 16:30:00,54.4,53.8,29.61,South,182,2.0,2.0,98,0.00,,,0.66,Wunderground v.1.15,2013-06-13 20:30:00,
2013-06-13 16:35:00,54.4,53.8,29.61,South,173,2.0,8.0,98,0.00,,,0.66,Wunderground v.1.15,2013-06-13 20:35:00,
2013-06-13 16:40:00,54.3,53.7,29.61,South,181,1.0,1.0,98,0.00,,,0.66,Wunderground v.1.15,2013-06-13 20:40:00,
2013-06-13 16:45:00,54.3,53.7,29.61,SSE,161,1.0,8.0,98,0.00,,,0.66,Wunderground v.1.15,2013-06-13 20:45:00,
2013-06-13 16:55:00,54.3,54.0,29.62,ESE,109,1.0,8.0,99,0.00,,,0.67,Wunderground v.1.15,2013-06-13 20:55:00,
2013-06-13 17:00:00,54.3,54.0,29.62,ESE,123,1.0,8.0,99,0.08,,,0.67,Wunderground v.1.15,2013-06-13 21:00:00,
2013-06-13 17:05:00,54.3,54.0,29.62,SE,137,1.0,8.0,99,0.39,,,0.70,Wunderground v.1.15,2013-06-13 21:05:00,
2013-06-13 17:10:00,54.3,54.0,29.62,SE,135,1.0,8.0,99,0.24,,,0.72,Wunderground v.1.15,2013-06-13 21:10:00,
2013-06-13 17:15:00,54.3,54.0,29.62,SE,133,0.0,8.0,99,0.13,,,0.73,Wunderground v.1.15,2013-06-13 21:15:00,
2013-06-13 17:20:00,54.3,54.0,29.62,SSE,168,1.0,1.0,99,0.16,,,0.74,Wunderground v.1.15,2013-06-13 21:20:00,
2013-06-13 17:25:00,54.2,53.9,29.62,South,171,1.0,2.0,99,0.20,,,0.76,Wunderground v.1.15,2013-06-13 21:25:00,
2013-06-13 17:35:00,54.2,53.9,29.61,ENE,69,1.0,8.0,99,0.17,,,0.78,Wunderground v.1.15,2013-06-13 21:35:00,
2013-06-13 17:40:00,54.2,53.9,29.61,SE,130,1.0,8.0,99,0.09,,,0.78,Wunderground v.1.15,2013-06-13 21:40:00,
2013-06-13 17:45:00,54.1,53.8,29.61,South,173,1.0,8.0,99,0.14,,,0.80,Wunderground v.1.15,2013-06-13 21:45:00,
2013-06-13 17:50:00,54.1,53.8,29.61,North,349,1.0,8.0,99,0.11,,,0.80,Wunderground v.1.15,2013-06-13 21:50:00,
2013-06-13 18:00:00,54.1,53.8,29.60,NNW,342,1.0,8.0,99,0.07,,,0.81,Wunderground v.1.15,2013-06-13 22:00:00,
2013-06-13 18:05:00,54.1,53.8,29.60,ESE,102,1.0,8.0,99,0.08,,,0.82,Wunderground v.1.15,2013-06-13 22:05:00,
2013-06-13 18:10:00,54.1,53.8,29.61,East,95,1.0,1.0,99,0.06,,,0.82,Wunderground v.1.15,2013-06-13 22:10:00,
2013-06-13 18:15:00,54.0,53.7,29.61,SE,127,1.0,2.0,99,0.05,,,0.83,Wunderground v.1.15,2013-06-13 22:15:00,
2013-06-13 18:25:00,54.0,53.7,29.60,ENE,63,1.0,8.0,99,0.08,,,0.84,Wunderground v.1.15,2013-06-13 22:25:00,
2013-06-13 18:30:00,53.9,53.6,29.60,SSE,147,1.0,1.0,99,0.07,,,0.85,Wunderground v.1.15,2013-06-13 22:30:00,
2013-06-13 18:35:00,53.9,53.6,29.60,SSE,157,1.0,8.0,99,0.09,,,0.86,Wunderground v.1.15,2013-06-13 22:35:00,
2013-06-13 18:40:00,53.9,53.6,29.60,South,175,2.0,8.0,99,0.09,,,0.86,Wunderground v.1.15,2013-06-13 22:40:00,
2013-06-13 18:45:00,53.8,53.5,29.61,ESE,115,2.0,8.0,99,0.08,,,0.87,Wunderground v.1.15,2013-06-13 22:45:00,
2013-06-13 18:50:00,53.8,53.5,29.61,South,170,3.0,3.0,99,0.13,,,0.88,Wunderground v.1.15,2013-06-13 22:50:00,
2013-06-13 18:55:00,53.8,53.5,29.61,SE,145,2.0,4.0,99,0.18,,,0.90,Wunderground v.1.15,2013-06-13 22:55:00,
2013-06-13 19:05:00,53.7,53.4,29.60,ENE,60,1.0,8.0,99,0.15,,,0.92,Wunderground v.1.15,2013-06-13 23:05:00,
2013-06-13 19:10:00,53.6,53.0,29.60,ESE,111,1.0,1.0,98,0.26,,,0.94,Wunderground v.1.15,2013-06-13 23:10:00,
2013-06-13 19:20:00,53.6,53.0,29.60,SSE,156,2.0,8.0,98,0.27,,,0.98,Wunderground v.1.15,2013-06-13 23:20:00,
2013-06-13 19:25:00,53.5,52.9,29.60,South,170,2.0,8.0,98,0.27,,,1.00,Wunderground v.1.15,2013-06-13 23:25:00,
2013-06-13 19:30:00,53.5,53.2,29.60,SSE,163,2.0,8.0,99,0.29,,,1.02,Wunderground v.1.15,2013-06-13 23:30:00,
2013-06-13 19:40:00,53.5,53.2,29.60,NE,52,2.0,8.0,99,0.18,,,1.05,Wunderground v.1.15,2013-06-13 23:40:00,
2013-06-13 19:45:00,53.5,53.2,29.61,ENE,72,2.0,8.0,99,0.16,,,1.07,Wunderground v.1.15,2013-06-13 23:45:00,
2013-06-13 19:50:00,53.4,53.1,29.60,East,99,2.0,2.0,99,0.19,,,1.09,Wunderground v.1.15,2013-06-13 23:50:00,
2013-06-13 20:00:00,53.3,53.0,29.60,SE,139,2.0,8.0,99,0.08,,,1.10,Wunderground v.1.15,2013-06-14 00:00:00,
2013-06-13 20:05:00,53.2,52.9,29.60,SE,131,2.0,8.0,99,0.25,,,1.12,Wunderground v.1.15,2013-06-14 00:05:00,
2013-06-13 20:10:00,53.2,52.9,29.60,WNW,288,3.0,3.0,99,0.11,,,1.13,Wunderground v.1.15,2013-06-14 00:10:00,
2013-06-13 20:15:00,53.1,52.8,29.60,NNE,12,3.0,8.0,99,0.17,,,1.14,Wunderground v.1.15,2013-06-14 00:15:00,
2013-06-13 20:20:00,53.0,52.7,29.60,NNE,24,3.0,3.0,99,0.21,,,1.16,Wunderground v.1.15,2013-06-14 00:20:00,
2013-06-13 20:25:00,53.0,52.5,29.60,SE,143,2.0,8.0,98,0.60,,,1.20,Wunderground v.1.15,2013-06-14 00:25:00,
2013-06-13 20:30:00,52.9,52.4,29.60,ENE,61,2.0,2.0,98,0.38,,,1.22,Wunderground v.1.15,2013-06-14 00:30:00,
2013-06-13 20:35:00,52.8,52.3,29.60,SSE,148,3.0,3.0,98,0.31,,,1.24,Wunderground v.1.15,2013-06-14 00:35:00,
2013-06-13 20:40:00,52.7,52.2,29.60,East,98,2.0,8.0,98,0.26,,,1.26,Wunderground v.1.15,2013-06-14 00:40:00,
2013-06-13 20:45:00,52.6,52.1,29.60,South,177,1.0,8.0,98,0.28,,,1.28,Wunderground v.1.15,2013-06-14 00:45:00,
2013-06-13 20:55:00,52.4,51.9,29.60,NNW,340,2.0,8.0,98,0.17,,,1.31,Wunderground v.1.15,2013-06-14 00:55:00,
2013-06-13 21:00:00,52.3,51.8,29.60,SSE,157,2.0,8.0,98,0.16,,,1.32,Wunderground v.1.15,2013-06-14 01:00:00,
2013-06-13 21:05:00,52.1,51.6,29.60,NNW,346,2.0,8.0,98,0.19,,,1.34,Wunderground v.1.15,2013-06-14 01:05:00,
2013-06-13 21:10:00,52.1,51.6,29.60,NE,35,3.0,8.0,98,0.18,,,1.35,Wunderground v.1.15,2013-06-14 01:10:00,
2013-06-13 21:15:00,52.1,51.6,29.60,ESE,123,3.0,8.0,98,0.14,,,1.36,Wunderground v.1.15,2013-06-14 01:15:00,
2013-06-13 21:25:00,51.9,51.4,29.61,NE,48,1.0,3.0,98,0.16,,,1.39,Wunderground v.1.15,2013-06-14 01:25:00,
2013-06-13 21:35:00,51.6,51.1,29.61,East,89,2.0,3.0,98,0.33,,,1.45,Wunderground v.1.15,2013-06-14 01:35:00,
2013-06-13 21:40:00,51.4,50.9,29.61,SSE,161,3.0,10.0,98,0.39,,,1.48,Wunderground v.1.15,2013-06-14 01:40:00,
2013-06-13 21:45:00,51.3,50.8,29.61,SE,138,3.0,10.0,98,0.32,,,1.51,Wunderground v.1.15,2013-06-14 01:45:00,
2013-06-13 21:50:00,51.2,50.7,29.60,ENE,67,2.0,10.0,98,0.37,,,1.54,Wunderground v.1.15,2013-06-14 01:50:00,
2013-06-13 21:55:00,51.1,50.6,29.61,SE,138,2.0,10.0,98,0.31,,,1.57,Wunderground v.1.15,2013-06-14 01:55:00,
2013-06-13 22:00:00,51.0,50.5,29.60,ENE,59,2.0,2.0,98,0.25,,,1.59,Wunderground v.1.15,2013-06-14 02:00:00,
2013-06-13 22:05:00,50.9,50.4,29.60,West,270,2.0,8.0,98,0.19,,,1.61,Wunderground v.1.15,2013-06-14 02:05:00,
2013-06-13 22:10:00,50.9,50.4,29.60,SE,131,3.0,8.0,98,0.17,,,1.62,Wunderground v.1.15,2013-06-14 02:10:00,
2013-06-13 22:15:00,50.9,50.4,29.60,South,187,3.0,8.0,98,0.11,,,1.63,Wunderground v.1.15,2013-06-14 02:15:00,
2013-06-13 22:25:00,50.9,50.4,29.61,ESE,121,3.0,7.0,98,0.09,,,1.64,Wunderground v.1.15,2013-06-14 02:25:00,
2013-06-13 22:30:00,50.9,50.4,29.62,NNE,13,2.0,2.0,98,0.05,,,1.65,Wunderground v.1.15,2013-06-14 02:30:00,
2013-06-13 22:35:00,50.8,50.3,29.61,NE,45,1.0,8.0,98,0.15,,,1.66,Wunderground v.1.15,2013-06-14 02:35:00,
2013-06-13 22:40:00,50.8,50.3,29.61,ENE,74,1.0,8.0,98,0.13,,,1.67,Wunderground v.1.15,2013-06-14 02:40:00,
2013-06-13 22:45:00,50.7,50.2,29.61,ENE,60,1.0,8.0,98,0.16,,,1.68,Wunderground v.1.15,2013-06-14 02:45:00,
2013-06-13 22:50:00,50.7,50.2,29.61,East,86,2.0,2.0,98,0.11,,,1.69,Wunderground v.1.15,2013-06-14 02:50:00,
2013-06-13 23:00:00,50.6,50.3,29.61,NNE,30,2.0,2.0,99,0.07,,,1.70,Wunderground v.1.15,2013-06-14 03:00:00,
2013-06-13 23:05:00,50.5,50.0,29.60,ENE,70,2.0,8.0,98,0.06,,,1.71,Wunderground v.1.15,2013-06-14 03:05:00,
2013-06-13 23:10:00,50.5,50.0,29.60,ENE,61,2.0,8.0,98,0.11,,,1.72,Wunderground v.1.15,2013-06-14 03:10:00,
2013-06-13 23:15:00,50.5,50.0,29.60,NE,55,3.0,8.0,98,0.09,,,1.73,Wunderground v.1.15,2013-06-14 03:15:00,
2013-06-13 23:20:00,50.4,50.1,29.61,East,81,2.0,8.0,99,0.10,,,1.74,Wunderground v.1.15,2013-06-14 03:20:00,
2013-06-13 23:25:00,50.3,50.0,29.60,East,98,2.0,8.0,99,0.09,,,1.74,Wunderground v.1.15,2013-06-14 03:25:00,
2013-06-13 23:30:00,50.3,50.0,29.60,ENE,72,3.0,9.0,99,0.15,,,1.76,Wunderground v.1.15,2013-06-14 03:30:00,
2013-06-13 23:35:00,50.2,49.9,29.60,ENE,62,3.0,9.0,99,0.12,,,1.76,Wunderground v.1.15,2013-06-14 03:35:00,
2013-06-13 23:40:00,50.2,49.9,29.60,NE,36,3.0,3.0,99,0.07,,,1.77,Wunderground v.1.15,2013-06-14 03:40:00,
2013-06-13 23:50:00,50.2,49.9,29.59,NE,38,2.0,8.0,99,0.08,,,1.78,Wunderground v.1.15,2013-06-14 03:50:00,
2013-06-13 23:55:00,50.2,49.9,29.59,North,5,2.0,8.0,99,0.16,,,1.80,Wunderground v.1.15,2013-06-14 03:55:00,